aviador You're here:

KGAF Decoded Metar

in
Report Time2017-06-29 12:35:00
UTC Time2017-06-29 12:33:24
Flight Rules lifr LIFR
Wind050° at 03 kt
W.Decomp.*RWY 08: 2.6 kt HW 1.5 kt LCW
RWY 35: 1.5 kt HW 2.6 kt RCW
W.Rank050° ranks 32
Current wind is below 050° avg. (7.1)
Visibility402 m
Phenomena:Fog
Clouds:Overcast 001 Hf
Ceiling100 ft
Temp14°C
Dew Point14°C (100% RH)
QNH1008 hPa
Raw Report
METAR KGAF 291235Z AUTO 05003KT M1/4SM FG OVC001 14/14 A2978 RMK AO2=

Extra information for KGAF:More info

Social comments